createdAt,value
2019-03-23T00:02:15.503Z,5.96
2019-03-23T00:04:44.116Z,5.86
2019-03-23T00:07:12.791Z,5.86
2019-03-23T00:12:15.864Z,5.81
2019-03-23T00:14:44.575Z,5.73
2019-03-23T00:17:32.449Z,5.88
2019-03-23T00:20:01.078Z,5.82
2019-03-23T00:22:29.659Z,5.91
2019-03-23T00:24:58.344Z,5.85
2019-03-23T00:27:27.045Z,5.68
2019-03-23T00:29:55.704Z,5.58
2019-03-23T00:32:36.753Z,5.55
2019-03-23T00:35:45.171Z,5.78
2019-03-23T00:38:13.857Z,5.53
2019-03-23T00:40:42.480Z,5.33
2019-03-23T00:43:30.351Z,5.42
2019-03-23T00:45:59.046Z,5.45
2019-03-23T00:48:27.819Z,5.47
2019-03-23T00:50:56.427Z,5.49
2019-03-23T00:53:25.006Z,5.52
2019-03-23T00:55:53.689Z,5.33
2019-03-23T00:58:22.334Z,5.22
2019-03-23T01:01:10.767Z,5.23
2019-03-23T01:03:39.473Z,5.41
2019-03-23T01:06:27.300Z,5.23
2019-03-23T01:08:55.986Z,5.13
2019-03-23T01:11:43.823Z,5.07
2019-03-23T01:14:31.711Z,5.13
2019-03-23T01:17:00.275Z,5.25
2019-03-23T01:19:28.981Z,5.12
2019-03-23T01:21:57.834Z,5.05
2019-03-23T01:24:26.331Z,5.07
2019-03-23T01:29:49.567Z,4.86
2019-03-23T01:32:18.187Z,4.87
2019-03-23T01:34:46.879Z,5.11
2019-03-23T01:37:34.703Z,5.17
2019-03-23T01:43:16.986Z,4.79
2019-03-23T01:46:04.930Z,4.90
2019-03-23T01:48:33.695Z,4.83
2019-03-23T01:51:02.449Z,4.96
2019-03-23T01:53:50.316Z,4.95
2019-03-23T01:56:38.189Z,4.77
2019-03-23T01:59:26.064Z,4.61
2019-03-23T02:01:54.688Z,4.51
2019-03-23T02:04:42.477Z,4.48
2019-03-23T02:07:30.327Z,4.46
2019-03-23T02:10:18.176Z,4.50
2019-03-23T02:12:46.828Z,4.56
2019-03-23T02:15:15.568Z,4.68
2019-03-23T02:17:44.261Z,4.76
2019-03-23T02:20:52.732Z,4.97
2019-03-23T02:23:21.417Z,5.13
2019-03-23T02:26:09.112Z,5.07
2019-03-23T02:31:31.258Z,5.03
2019-03-23T02:33:59.862Z,5.19
2019-03-23T02:36:47.745Z,5.45
2019-03-23T02:39:16.312Z,5.51
2019-03-23T02:41:45.065Z,5.47
2019-03-23T02:44:33.003Z,5.41
2019-03-23T02:49:42.514Z,5.46
2019-03-23T02:52:30.417Z,5.52
2019-03-23T02:54:59.099Z,5.48
2019-03-23T02:57:27.949Z,5.64
2019-03-23T02:59:56.604Z,5.49
2019-03-23T03:02:25.311Z,5.44
2019-03-23T03:05:13.209Z,5.38
2019-03-23T03:07:43.524Z,5.36
2019-03-23T03:10:52.179Z,5.42
2019-03-23T03:13:35.181Z,5.48
2019-03-23T03:16:10.771Z,5.39
2019-03-23T03:18:39.474Z,5.21
2019-03-23T03:21:08.049Z,5.08
2019-03-23T03:24:16.533Z,4.99
2019-03-23T03:26:45.182Z,4.96
2019-03-23T03:29:33.081Z,4.90
2019-03-23T03:32:01.718Z,4.91
2019-03-23T03:34:30.395Z,4.90
2019-03-23T03:37:18.442Z,4.86
2019-03-23T03:40:07.379Z,4.90
2019-03-23T03:46:09.204Z,4.84
2019-03-23T03:48:38.661Z,4.94
2019-03-23T03:51:26.746Z,4.89
2019-03-23T03:54:14.651Z,4.88
2019-03-23T03:59:32.269Z,4.87
2019-03-23T04:04:36.930Z,5.00
2019-03-23T04:07:05.860Z,4.93
2019-03-23T04:12:29.519Z,4.98
2019-03-23T04:14:58.144Z,4.87
2019-03-23T04:17:26.832Z,5.08
2019-03-23T04:19:55.402Z,4.97
2019-03-23T04:22:24.047Z,4.91
2019-03-23T04:25:12.282Z,4.91
2019-03-23T04:27:40.955Z,4.93
2019-03-23T04:30:49.388Z,4.86
2019-03-23T04:33:37.249Z,4.94
2019-03-23T04:36:25.097Z,5.04
2019-03-23T04:39:12.931Z,4.93
2019-03-23T04:41:41.619Z,4.87
2019-03-23T04:44:10.328Z,4.91
2019-03-23T04:46:39.483Z,4.95
2019-03-23T04:49:08.165Z,4.88
2019-03-23T04:51:56.138Z,4.86
2019-03-23T04:54:44.120Z,4.79
2019-03-23T04:57:12.813Z,4.89
2019-03-23T04:59:43.166Z,4.83
2019-03-23T05:05:47.833Z,4.68
2019-03-23T05:08:16.566Z,4.62
2019-03-23T05:13:40.405Z,4.60
2019-03-23T05:16:28.278Z,4.57
2019-03-23T05:18:56.815Z,4.61
2019-03-23T05:21:44.650Z,4.49
2019-03-23T05:24:32.441Z,4.50
2019-03-23T05:27:01.182Z,4.45
2019-03-23T05:29:29.838Z,4.42
2019-03-23T05:34:33.376Z,4.56
2019-03-23T05:37:02.214Z,4.60
2019-03-23T05:40:10.812Z,4.58
2019-03-23T05:42:58.640Z,4.51
2019-03-23T05:45:46.516Z,4.64
2019-03-23T05:48:15.106Z,4.62
2019-03-23T05:50:43.861Z,4.65
2019-03-23T05:53:31.673Z,4.57
2019-03-23T05:56:00.385Z,4.57
2019-03-23T05:58:48.101Z,4.68
2019-03-23T06:01:36.049Z,4.74
2019-03-23T06:06:59.781Z,4.75
2019-03-23T06:09:28.408Z,4.96
2019-03-23T06:11:56.976Z,5.08
2019-03-23T06:14:25.595Z,5.18
2019-03-23T06:17:13.502Z,5.22
2019-03-23T06:19:42.156Z,5.35
2019-03-23T06:22:10.807Z,5.58
2019-03-23T06:28:47.027Z,6.79
2019-03-23T06:31:15.713Z,7.94
2019-03-23T06:34:03.540Z,9.47
2019-03-23T06:36:32.115Z,10.49
2019-03-23T06:39:19.898Z,11.16
2019-03-23T06:41:48.561Z,10.89
2019-03-23T06:44:18.415Z,10.79
2019-03-23T06:46:47.488Z,10.00
2019-03-23T06:49:36.013Z,9.45
2019-03-23T06:52:23.929Z,8.81
2019-03-23T06:54:52.547Z,8.94
2019-03-23T06:57:21.202Z,9.37
2019-03-23T07:00:08.946Z,10.15
2019-03-23T07:02:37.593Z,10.90
2019-03-23T07:05:46.072Z,10.36
2019-03-23T07:08:14.647Z,10.59
2019-03-23T07:10:43.361Z,10.91
2019-03-23T07:13:11.927Z,10.92
2019-03-23T07:15:59.775Z,10.54
2019-03-23T07:18:47.664Z,10.35
2019-03-23T07:21:35.544Z,11.36
2019-03-23T07:24:04.382Z,12.12
2019-03-23T07:26:32.986Z,12.94
2019-03-23T07:29:01.565Z,14.17
2019-03-23T07:31:30.202Z,14.31
2019-03-23T07:34:17.946Z,14.42
2019-03-23T07:36:46.633Z,14.71
2019-03-23T07:39:15.211Z,15.09
2019-03-23T07:42:03.155Z,15.48
2019-03-23T07:44:50.991Z,15.95
2019-03-23T07:47:19.670Z,15.91
2019-03-23T07:49:48.326Z,16.13
2019-03-23T07:52:16.953Z,15.70
2019-03-23T07:54:45.454Z,14.29
2019-03-23T07:57:33.339Z,14.03
2019-03-23T08:00:21.176Z,13.86
2019-03-23T08:03:09.050Z,13.25
2019-03-23T08:05:37.729Z,13.24
2019-03-23T08:08:06.415Z,12.71
2019-03-23T08:11:14.913Z,13.09
2019-03-23T08:14:23.333Z,13.07
2019-03-23T08:16:51.953Z,13.26
2019-03-23T08:19:20.482Z,13.67
2019-03-23T08:22:08.354Z,13.19
2019-03-23T08:24:56.065Z,13.41
2019-03-23T08:27:24.765Z,13.82
2019-03-23T08:29:53.351Z,13.45
2019-03-23T08:32:41.096Z,12.98
2019-03-23T08:35:09.826Z,12.95
2019-03-23T08:37:38.408Z,12.85
2019-03-23T08:43:00.772Z,13.03
2019-03-23T08:45:29.431Z,12.67
2019-03-23T08:47:58.120Z,12.90
2019-03-23T08:53:14.319Z,13.28
2019-03-23T08:55:42.877Z,13.40
2019-03-23T08:58:11.571Z,13.55
2019-03-23T09:00:40.235Z,13.50
2019-03-23T09:03:28.096Z,13.62
2019-03-23T09:06:15.982Z,13.71
2019-03-23T09:12:12.266Z,13.57
2019-03-23T09:14:40.774Z,13.72
2019-03-23T09:17:28.574Z,13.85
2019-03-23T09:20:16.407Z,13.68
2019-03-23T09:22:44.954Z,13.81
2019-03-23T09:25:13.603Z,14.06
2019-03-23T09:27:42.288Z,14.18
2019-03-23T09:30:50.778Z,14.24
2019-03-23T09:33:38.658Z,14.14
2019-03-23T09:36:26.601Z,14.70
2019-03-23T09:38:55.288Z,14.49
2019-03-23T09:41:43.156Z,14.24
2019-03-23T09:44:11.868Z,14.52
2019-03-23T09:46:40.511Z,14.78
2019-03-23T09:49:09.161Z,15.20
2019-03-23T09:51:57.115Z,15.21
2019-03-23T09:54:25.742Z,15.27
2019-03-23T09:57:13.581Z,15.25
2019-03-23T10:00:01.469Z,15.44
2019-03-23T10:02:49.211Z,15.59
2019-03-23T10:05:37.059Z,15.61
2019-03-23T10:08:24.878Z,16.02
2019-03-23T10:11:12.766Z,15.90
2019-03-23T10:14:00.470Z,16.26
2019-03-23T10:16:29.180Z,16.55
2019-03-23T10:19:17.041Z,16.91
2019-03-23T10:22:04.917Z,17.00
2019-03-23T10:24:52.725Z,16.65
2019-03-23T10:27:21.355Z,16.89
2019-03-23T10:30:09.188Z,17.02
2019-03-23T10:32:37.765Z,17.01
2019-03-23T10:35:46.175Z,17.09
2019-03-23T10:38:33.957Z,17.29
2019-03-23T10:41:21.798Z,17.32
2019-03-23T10:44:09.754Z,17.34
2019-03-23T10:46:38.515Z,17.80
2019-03-23T10:49:26.398Z,17.63
2019-03-23T10:52:14.217Z,16.88
2019-03-23T10:54:42.807Z,17.27
2019-03-23T10:57:30.698Z,17.38
2019-03-23T11:00:18.515Z,17.43
2019-03-23T11:03:06.257Z,17.64
2019-03-23T11:05:54.147Z,17.97
2019-03-23T11:08:22.831Z,17.72
2019-03-23T11:11:10.713Z,17.29
2019-03-23T11:13:58.547Z,17.41
2019-03-23T11:16:46.439Z,17.74
2019-03-23T11:19:14.945Z,17.90
2019-03-23T11:22:02.829Z,17.53
2019-03-23T11:24:50.664Z,17.96
2019-03-23T11:27:38.561Z,17.98
2019-03-23T11:30:46.983Z,18.15
2019-03-23T11:33:34.849Z,17.94
2019-03-23T11:36:22.692Z,18.38
2019-03-23T11:39:10.575Z,18.53
2019-03-23T11:41:58.407Z,18.93
2019-03-23T11:44:46.342Z,17.79
2019-03-23T11:47:14.948Z,18.11
2019-03-23T11:50:02.839Z,18.17
2019-03-23T11:52:50.731Z,18.00
2019-03-23T11:55:38.559Z,18.93
2019-03-23T11:58:07.247Z,18.55
2019-03-23T12:00:35.900Z,19.13
2019-03-23T12:03:04.608Z,19.12
2019-03-23T12:05:33.261Z,19.35
2019-03-23T12:08:21.140Z,19.47
2019-03-23T12:11:09.009Z,19.88
2019-03-23T12:13:56.893Z,20.07
2019-03-23T12:16:44.755Z,20.21
2019-03-23T12:19:32.634Z,20.04
2019-03-23T12:22:20.507Z,19.28
2019-03-23T12:25:08.321Z,19.31
2019-03-23T12:27:36.951Z,19.83
2019-03-23T12:30:45.417Z,20.10
2019-03-23T12:33:14.038Z,20.29
2019-03-23T12:36:01.926Z,20.15
2019-03-23T12:38:49.761Z,19.70
2019-03-23T12:41:37.570Z,19.95
2019-03-23T12:44:06.202Z,20.44
2019-03-23T12:46:54.082Z,20.43
2019-03-23T12:49:41.921Z,20.73
2019-03-23T12:52:29.817Z,20.81
2019-03-23T12:55:17.580Z,21.01
2019-03-23T12:58:05.408Z,20.65
2019-03-23T13:00:53.282Z,20.85
2019-03-23T13:03:21.928Z,20.18
2019-03-23T13:05:50.617Z,20.41
2019-03-23T13:08:38.502Z,20.76
2019-03-23T13:11:07.196Z,20.96
2019-03-23T13:13:55.076Z,21.22
2019-03-23T13:16:42.851Z,21.47
2019-03-23T13:19:30.588Z,21.71
2019-03-23T13:21:59.271Z,21.16
2019-03-23T13:24:47.155Z,22.16
2019-03-23T13:27:35.043Z,22.06
2019-03-23T13:30:43.516Z,22.26
2019-03-23T13:33:31.279Z,21.94
2019-03-23T13:36:19.156Z,21.49
2019-03-23T13:39:07.032Z,21.52
2019-03-23T13:41:54.902Z,21.45
2019-03-23T13:44:42.744Z,21.58
2019-03-23T13:47:30.509Z,21.61
2019-03-23T13:50:18.266Z,21.13
2019-03-23T13:53:06.167Z,20.80
2019-03-23T13:56:14.646Z,21.16
2019-03-23T13:59:02.599Z,21.48
2019-03-23T14:01:50.478Z,21.13
2019-03-23T14:04:19.075Z,21.08
2019-03-23T14:06:47.700Z,21.39
2019-03-23T14:09:35.551Z,20.06
2019-03-23T14:12:04.173Z,19.77
2019-03-23T14:14:52.011Z,20.27
2019-03-23T14:17:39.840Z,20.73
2019-03-23T14:23:22.315Z,21.00
2019-03-23T14:26:10.148Z,21.08
2019-03-23T14:28:58.022Z,20.55
2019-03-23T14:31:45.772Z,20.07
2019-03-23T14:34:14.286Z,20.13
2019-03-23T14:37:02.232Z,20.59
2019-03-23T14:39:31.215Z,20.98
2019-03-23T14:42:05.135Z,21.50
2019-03-23T14:44:31.644Z,21.75
2019-03-23T14:47:00.334Z,20.79
2019-03-23T14:49:48.250Z,20.80
2019-03-23T14:52:36.124Z,21.06
2019-03-23T14:55:44.564Z,21.30
2019-03-23T14:58:13.167Z,20.49
2019-03-23T15:01:01.044Z,20.05
2019-03-23T15:03:29.556Z,19.67
2019-03-23T15:06:17.320Z,20.51
2019-03-23T15:09:05.034Z,20.36
2019-03-23T15:11:52.905Z,20.83
2019-03-23T15:14:40.752Z,21.18
2019-03-23T15:17:28.506Z,20.91
2019-03-23T15:20:16.335Z,20.22
2019-03-23T15:22:45.031Z,20.74
2019-03-23T15:25:13.728Z,21.08
2019-03-23T15:28:01.621Z,20.94
2019-03-23T15:30:50.870Z,20.76
2019-03-23T15:33:20.019Z,21.37
2019-03-23T15:36:07.788Z,21.01
2019-03-23T15:39:16.275Z,20.66
2019-03-23T15:41:44.858Z,20.34
2019-03-23T15:44:32.606Z,20.45
2019-03-23T15:47:20.479Z,20.32
2019-03-23T15:50:08.317Z,19.88
2019-03-23T15:52:56.198Z,19.43
2019-03-23T15:55:44.038Z,19.56
2019-03-23T15:58:31.904Z,19.90
2019-03-23T16:01:19.666Z,19.95
2019-03-23T16:04:07.422Z,19.93
2019-03-23T16:06:56.813Z,19.18
2019-03-23T16:09:44.720Z,19.18
2019-03-23T16:12:34.992Z,18.93
2019-03-23T16:17:55.942Z,18.64
2019-03-23T16:20:43.844Z,18.91
2019-03-23T16:23:31.617Z,18.68
2019-03-23T16:26:19.480Z,18.53
2019-03-23T16:32:15.773Z,18.36
2019-03-23T16:35:03.571Z,18.25
2019-03-23T16:37:51.393Z,18.19
2019-03-23T16:40:19.906Z,17.99
2019-03-23T16:42:48.515Z,17.96
2019-03-23T16:45:17.171Z,17.99
2019-03-23T16:47:45.759Z,17.97
2019-03-23T16:50:14.399Z,17.74
2019-03-23T16:52:42.987Z,17.70
2019-03-23T16:55:11.736Z,17.59
2019-03-23T16:57:40.378Z,17.51
2019-03-23T17:00:47.522Z,17.72
2019-03-23T17:03:16.117Z,17.56
2019-03-23T17:06:04.069Z,17.35
2019-03-23T17:08:51.880Z,17.26
2019-03-23T17:11:39.691Z,17.19
2019-03-23T17:14:08.267Z,17.12
2019-03-23T17:16:36.984Z,16.94
2019-03-23T17:19:24.866Z,16.72
2019-03-23T17:22:12.754Z,16.43
2019-03-23T17:24:41.271Z,16.21
2019-03-23T17:27:29.166Z,16.07
2019-03-23T17:30:16.869Z,16.06
2019-03-23T17:33:04.744Z,15.76
2019-03-23T17:35:52.547Z,15.58
2019-03-23T17:38:40.332Z,15.46
2019-03-23T17:41:28.202Z,15.58
2019-03-23T17:44:16.056Z,15.18
2019-03-23T17:47:04.294Z,15.07
2019-03-23T17:49:52.146Z,15.02
2019-03-23T17:52:20.908Z,14.77
2019-03-23T17:55:08.751Z,14.59
2019-03-23T17:57:56.649Z,14.32
2019-03-23T18:00:25.481Z,14.12
2019-03-23T18:03:13.368Z,13.90
2019-03-23T18:06:01.238Z,13.80
2019-03-23T18:08:49.057Z,13.70
2019-03-23T18:11:36.902Z,13.52
2019-03-23T18:14:45.352Z,13.41
2019-03-23T18:17:33.123Z,13.43
2019-03-23T18:20:20.993Z,13.41
2019-03-23T18:23:08.977Z,13.22
2019-03-23T18:25:56.819Z,13.08
2019-03-23T18:28:44.707Z,13.01
2019-03-23T18:31:32.650Z,12.92
2019-03-23T18:34:01.538Z,12.89
2019-03-23T18:36:30.402Z,12.64
2019-03-23T18:39:18.390Z,12.51
2019-03-23T18:42:06.228Z,12.46
2019-03-23T18:44:54.318Z,12.34
2019-03-23T18:47:42.049Z,12.23
2019-03-23T18:50:29.946Z,12.13
2019-03-23T18:52:58.572Z,12.15
2019-03-23T18:55:27.206Z,12.13
2019-03-23T18:57:57.776Z,12.01
2019-03-23T19:00:45.609Z,11.80
2019-03-23T19:03:54.071Z,11.65
2019-03-23T19:06:22.763Z,11.48
2019-03-23T19:08:51.393Z,11.44
2019-03-23T19:11:20.129Z,11.39
2019-03-23T19:13:48.759Z,11.25
2019-03-23T19:16:17.451Z,11.13
2019-03-23T19:19:05.338Z,11.05
2019-03-23T19:21:53.150Z,10.89
2019-03-23T19:24:40.988Z,10.94
2019-03-23T19:27:28.912Z,10.84
2019-03-23T19:30:16.798Z,10.67
2019-03-23T19:33:06.289Z,10.64
2019-03-23T19:35:35.104Z,10.50
2019-03-23T19:38:22.989Z,10.40
2019-03-23T19:40:59.136Z,10.38
2019-03-23T19:43:49.734Z,10.46
2019-03-23T19:46:36.508Z,10.43
2019-03-23T19:49:24.344Z,10.22
2019-03-23T19:51:52.980Z,10.11
2019-03-23T19:54:21.677Z,10.11
2019-03-23T19:57:09.518Z,10.01
2019-03-23T19:59:57.312Z,10.00
2019-03-23T20:02:25.986Z,9.85
2019-03-23T20:05:14.380Z,9.72
2019-03-23T20:08:02.187Z,9.63
2019-03-23T20:10:49.998Z,9.88
2019-03-23T20:13:37.900Z,10.00
2019-03-23T20:16:06.552Z,9.70
2019-03-23T20:18:35.246Z,9.98
2019-03-23T20:21:23.229Z,10.01
2019-03-23T20:24:11.099Z,9.73
2019-03-23T20:26:58.981Z,9.45
2019-03-23T20:29:27.675Z,9.45
2019-03-23T20:31:56.258Z,9.38
2019-03-23T20:34:44.072Z,9.16
2019-03-23T20:37:31.855Z,9.13
2019-03-23T20:42:34.262Z,8.99
2019-03-23T20:45:22.165Z,9.02
2019-03-23T20:47:50.829Z,9.01
2019-03-23T20:50:38.696Z,8.85
2019-03-23T20:53:07.335Z,8.80
2019-03-23T20:55:35.970Z,8.81
2019-03-23T20:58:23.785Z,8.70
2019-03-23T21:00:52.394Z,8.74
2019-03-23T21:03:21.093Z,8.60
2019-03-23T21:06:08.883Z,8.61
2019-03-23T21:08:37.531Z,8.56
2019-03-23T21:11:25.492Z,8.78
2019-03-23T21:13:54.067Z,8.53
2019-03-23T21:16:41.866Z,8.50
2019-03-23T21:19:10.426Z,8.60
2019-03-23T21:21:58.137Z,8.46
2019-03-23T21:24:46.147Z,8.34
2019-03-23T21:27:34.072Z,8.26
2019-03-23T21:30:21.946Z,8.19
2019-03-23T21:33:09.893Z,8.14
2019-03-23T21:35:38.518Z,8.17
2019-03-23T21:38:26.325Z,8.17
2019-03-23T21:40:54.967Z,8.10
2019-03-23T21:43:42.839Z,7.98
2019-03-23T21:48:59.170Z,8.11
2019-03-23T21:51:27.760Z,7.88
2019-03-23T21:53:56.520Z,7.95
2019-03-23T21:56:44.437Z,7.76
2019-03-23T21:59:13.076Z,7.84
2019-03-23T22:02:02.065Z,7.75
2019-03-23T22:04:50.024Z,7.83
2019-03-23T22:07:18.682Z,7.79
2019-03-23T22:15:47.307Z,7.69
2019-03-23T22:21:25.393Z,7.72
2019-03-23T22:23:55.613Z,7.48
2019-03-23T22:26:24.152Z,7.29
2019-03-23T22:29:12.173Z,7.34
2019-03-23T22:31:40.931Z,7.40
2019-03-23T22:34:28.813Z,7.24
2019-03-23T22:40:24.941Z,7.37
2019-03-23T22:42:53.514Z,7.46
2019-03-23T22:45:22.181Z,7.29
2019-03-23T22:47:50.778Z,7.18
2019-03-23T22:50:39.087Z,7.03
2019-03-23T22:53:07.732Z,7.19
2019-03-23T22:55:36.315Z,7.15
2019-03-23T22:58:04.927Z,7.10
2019-03-23T23:00:53.427Z,7.05
2019-03-23T23:03:43.013Z,7.12
2019-03-23T23:06:31.349Z,6.98
2019-03-23T23:09:19.440Z,7.04
2019-03-23T23:11:48.082Z,6.97
2019-03-23T23:17:12.348Z,7.13
2019-03-23T23:19:43.142Z,7.09
2019-03-23T23:22:11.845Z,6.85
2019-03-23T23:24:40.478Z,6.83
2019-03-23T23:27:29.043Z,6.85
2019-03-23T23:30:19.003Z,6.85
2019-03-23T23:32:49.355Z,6.87
2019-03-23T23:35:18.061Z,6.91
2019-03-23T23:37:46.706Z,6.89
2019-03-23T23:43:09.619Z,6.60
2019-03-23T23:45:57.531Z,6.50
2019-03-23T23:48:51.196Z,6.45
2019-03-23T23:51:15.711Z,6.39
2019-03-23T23:53:44.752Z,6.33
2019-03-23T23:56:13.924Z,6.31
2019-03-23T23:58:42.708Z,6.30
